sensor_id;sensor_type;location;lat;lon;timestamp;pressure;altitude;pressure_sealevel;temperature;humidity
61961;BME280;47923;42.506;24.192;2023-04-27T00:02:08;94971.38;;;7.84;58.77
61961;BME280;47923;42.506;24.192;2023-04-27T00:04:34;94974.00;;;7.80;58.47
61961;BME280;47923;42.506;24.192;2023-04-27T00:06:59;94998.16;;;7.96;58.27
61961;BME280;47923;42.506;24.192;2023-04-27T00:09:25;94980.16;;;7.81;58.24
61961;BME280;47923;42.506;24.192;2023-04-27T00:11:50;94992.69;;;7.92;58.02
61961;BME280;47923;42.506;24.192;2023-04-27T00:14:16;94838.56;;;6.79;58.65
61961;BME280;47923;42.506;24.192;2023-04-27T00:16:41;94924.75;;;7.41;57.91
61961;BME280;47923;42.506;24.192;2023-04-27T00:19:07;94996.16;;;7.93;57.70
61961;BME280;47923;42.506;24.192;2023-04-27T00:21:33;95007.56;;;7.86;57.70
61961;BME280;47923;42.506;24.192;2023-04-27T00:23:59;95010.53;;;7.81;58.86
61961;BME280;47923;42.506;24.192;2023-04-27T00:26:24;95015.91;;;7.81;58.88
61961;BME280;47923;42.506;24.192;2023-04-27T00:28:51;95010.09;;;7.79;59.81
61961;BME280;47923;42.506;24.192;2023-04-27T00:31:16;95006.97;;;7.77;59.08
61961;BME280;47923;42.506;24.192;2023-04-27T00:33:42;95014.72;;;7.79;59.12
61961;BME280;47923;42.506;24.192;2023-04-27T00:36:08;94877.09;;;6.71;59.06
61961;BME280;47923;42.506;24.192;2023-04-27T00:38:33;95024.06;;;7.69;61.15
61961;BME280;47923;42.506;24.192;2023-04-27T00:41:00;95002.00;;;7.44;61.70
61961;BME280;47923;42.506;24.192;2023-04-27T00:43:26;95032.94;;;7.54;62.69
61961;BME280;47923;42.506;24.192;2023-04-27T00:45:51;95028.94;;;7.47;63.19
61961;BME280;47923;42.506;24.192;2023-04-27T00:48:16;95029.22;;;7.42;63.28
61961;BME280;47923;42.506;24.192;2023-04-27T00:50:42;95034.44;;;7.35;63.40
61961;BME280;47923;42.506;24.192;2023-04-27T00:53:08;95038.94;;;7.31;63.80
61961;BME280;47923;42.506;24.192;2023-04-27T00:55:33;95040.06;;;7.30;63.34
61961;BME280;47923;42.506;24.192;2023-04-27T00:57:59;95019.84;;;7.05;63.29
61961;BME280;47923;42.506;24.192;2023-04-27T01:00:24;94640.31;;;4.72;63.59
61961;BME280;47923;42.506;24.192;2023-04-27T01:02:51;95052.72;;;7.30;61.80
61961;BME280;47923;42.506;24.192;2023-04-27T01:05:17;95033.13;;;7.13;63.21
61961;BME280;47923;42.506;24.192;2023-04-27T01:07:43;95054.19;;;7.27;62.95
61961;BME280;47923;42.506;24.192;2023-04-27T01:10:09;95052.97;;;7.25;63.45
61961;BME280;47923;42.506;24.192;2023-04-27T01:12:34;95052.72;;;7.14;63.88
61961;BME280;47923;42.506;24.192;2023-04-27T01:15:00;95000.66;;;6.75;63.81
61961;BME280;47923;42.506;24.192;2023-04-27T01:17:25;95054.75;;;6.89;64.05
61961;BME280;47923;42.506;24.192;2023-04-27T01:19:51;95052.44;;;7.03;64.31
61961;BME280;47923;42.506;24.192;2023-04-27T01:22:22;95070.69;;;6.98;64.02
61961;BME280;47923;42.506;24.192;2023-04-27T01:24:47;94855.88;;;5.63;63.97
61961;BME280;47923;42.506;24.192;2023-04-27T01:27:13;94932.28;;;5.97;64.54
61961;BME280;47923;42.506;24.192;2023-04-27T01:29:39;95015.78;;;6.51;64.46
61961;BME280;47923;42.506;24.192;2023-04-27T01:32:04;95081.16;;;6.87;64.43
61961;BME280;47923;42.506;24.192;2023-04-27T01:34:30;95004.72;;;6.25;64.17
61961;BME280;47923;42.506;24.192;2023-04-27T01:36:57;95087.81;;;6.77;64.96
61961;BME280;47923;42.506;24.192;2023-04-27T01:39:22;95080.34;;;6.71;64.82
61961;BME280;47923;42.506;24.192;2023-04-27T01:41:48;95128.56;;;6.67;65.02
61961;BME280;47923;42.506;24.192;2023-04-27T01:44:14;94989.41;;;5.73;64.74
61961;BME280;47923;42.506;24.192;2023-04-27T01:46:39;94701.94;;;4.11;65.00
61961;BME280;47923;42.506;24.192;2023-04-27T01:49:05;94663.41;;;3.76;64.99
61961;BME280;47923;42.506;24.192;2023-04-27T01:51:30;95084.69;;;6.47;65.65
61961;BME280;47923;42.506;24.192;2023-04-27T01:53:57;94997.63;;;5.80;65.58
61961;BME280;47923;42.506;24.192;2023-04-27T01:56:22;95081.59;;;6.33;65.56
61961;BME280;47923;42.506;24.192;2023-04-27T01:58:48;95113.94;;;6.24;66.12
61961;BME280;47923;42.506;24.192;2023-04-27T02:01:13;95068.78;;;6.02;66.14
61961;BME280;47923;42.506;24.192;2023-04-27T02:03:39;94933.41;;;5.07;66.28
61961;BME280;47923;42.506;24.192;2023-04-27T02:06:05;95086.78;;;6.01;66.31
61961;BME280;47923;42.506;24.192;2023-04-27T02:08:30;95020.81;;;5.48;67.00
61961;BME280;47923;42.506;24.192;2023-04-27T02:10:56;94809.19;;;4.10;66.40
61961;BME280;47923;42.506;24.192;2023-04-27T02:13:21;95091.03;;;5.78;66.89
61961;BME280;47923;42.506;24.192;2023-04-27T02:15:47;95078.66;;;5.73;67.76
61961;BME280;47923;42.506;24.192;2023-04-27T02:18:12;95085.69;;;5.66;66.93
61961;BME280;47923;42.506;24.192;2023-04-27T02:20:40;95036.56;;;5.37;66.43
61961;BME280;47923;42.506;24.192;2023-04-27T02:23:05;94811.78;;;3.73;67.52
61961;BME280;47923;42.506;24.192;2023-04-27T02:25:32;94802.19;;;3.60;66.77
61961;BME280;47923;42.506;24.192;2023-04-27T02:27:57;95072.81;;;5.35;67.18
61961;BME280;47923;42.506;24.192;2023-04-27T02:30:23;94861.28;;;3.92;67.42
61961;BME280;47923;42.506;24.192;2023-04-27T02:32:48;94794.38;;;3.55;67.24
61961;BME280;47923;42.506;24.192;2023-04-27T02:35:13;95098.16;;;5.49;67.59
61961;BME280;47923;42.506;24.192;2023-04-27T02:37:39;94981.25;;;4.84;66.95
61961;BME280;47923;42.506;24.192;2023-04-27T02:40:06;95090.25;;;5.53;66.53
61961;BME280;47923;42.506;24.192;2023-04-27T02:42:32;94944.31;;;4.53;66.83
61961;BME280;47923;42.506;24.192;2023-04-27T02:44:58;95104.41;;;5.41;67.20
61961;BME280;47923;42.506;24.192;2023-04-27T02:47:23;94908.13;;;3.89;67.16
61961;BME280;47923;42.506;24.192;2023-04-27T02:49:49;95125.50;;;5.31;67.35
61961;BME280;47923;42.506;24.192;2023-04-27T02:52:15;95108.66;;;5.30;66.67
61961;BME280;47923;42.506;24.192;2023-04-27T02:54:40;95062.34;;;4.84;67.39
61961;BME280;47923;42.506;24.192;2023-04-27T02:57:06;95044.47;;;4.76;67.47
61961;BME280;47923;42.506;24.192;2023-04-27T02:59:31;95115.88;;;5.17;67.10
61961;BME280;47923;42.506;24.192;2023-04-27T03:01:57;95112.28;;;5.13;67.79
61961;BME280;47923;42.506;24.192;2023-04-27T03:04:23;95114.94;;;5.13;67.65
61961;BME280;47923;42.506;24.192;2023-04-27T03:06:48;94996.44;;;4.34;67.74
61961;BME280;47923;42.506;24.192;2023-04-27T03:09:16;95128.03;;;5.15;66.72
61961;BME280;47923;42.506;24.192;2023-04-27T03:11:42;95081.31;;;4.91;67.06
61961;BME280;47923;42.506;24.192;2023-04-27T03:14:07;95148.69;;;5.14;67.38
61961;BME280;47923;42.506;24.192;2023-04-27T03:16:33;95129.25;;;5.17;66.67
61961;BME280;47923;42.506;24.192;2023-04-27T03:18:59;95125.91;;;5.20;66.58
61961;BME280;47923;42.506;24.192;2023-04-27T03:21:24;95120.69;;;5.24;66.92
61961;BME280;47923;42.506;24.192;2023-04-27T03:23:51;95121.47;;;5.24;66.73
61961;BME280;47923;42.506;24.192;2023-04-27T03:26:17;95117.44;;;5.18;65.61
61961;BME280;47923;42.506;24.192;2023-04-27T03:28:46;95129.19;;;5.38;65.69
61961;BME280;47923;42.506;24.192;2023-04-27T03:31:13;94967.06;;;4.26;65.54
61961;BME280;47923;42.506;24.192;2023-04-27T03:33:40;95133.09;;;5.41;65.53
61961;BME280;47923;42.506;24.192;2023-04-27T03:36:07;94603.00;;;1.93;65.03
61961;BME280;47923;42.506;24.192;2023-04-27T03:38:33;95149.59;;;5.43;64.26
61961;BME280;47923;42.506;24.192;2023-04-27T03:40:59;95134.88;;;5.49;64.57
61961;BME280;47923;42.506;24.192;2023-04-27T03:43:26;95135.13;;;5.56;64.02
61961;BME280;47923;42.506;24.192;2023-04-27T03:45:51;95120.72;;;5.48;64.07
61961;BME280;47923;42.506;24.192;2023-04-27T03:48:17;94942.66;;;4.48;63.35
61961;BME280;47923;42.506;24.192;2023-04-27T03:50:43;95143.06;;;5.77;63.01
61961;BME280;47923;42.506;24.192;2023-04-27T03:53:09;94962.94;;;4.61;62.66
61961;BME280;47923;42.506;24.192;2023-04-27T03:55:42;95143.63;;;5.82;61.86
61961;BME280;47923;42.506;24.192;2023-04-27T03:58:08;95103.31;;;5.54;62.02
61961;BME280;47923;42.506;24.192;2023-04-27T04:00:35;95158.53;;;5.92;61.74
61961;BME280;47923;42.506;24.192;2023-04-27T04:03:02;94902.06;;;4.34;61.39
61961;BME280;47923;42.506;24.192;2023-04-27T04:05:27;95154.84;;;5.97;61.71
61961;BME280;47923;42.506;24.192;2023-04-27T04:07:54;95164.25;;;6.03;61.27
61961;BME280;47923;42.506;24.192;2023-04-27T04:10:20;95135.59;;;5.82;60.59
61961;BME280;47923;42.506;24.192;2023-04-27T04:12:45;95140.97;;;5.82;60.46
61961;BME280;47923;42.506;24.192;2023-04-27T04:15:11;95166.78;;;5.99;60.68
61961;BME280;47923;42.506;24.192;2023-04-27T04:17:36;94993.09;;;4.83;60.27
61961;BME280;47923;42.506;24.192;2023-04-27T04:20:02;94924.47;;;4.54;60.03
61961;BME280;47923;42.506;24.192;2023-04-27T04:22:32;95076.28;;;5.47;60.44
61961;BME280;47923;42.506;24.192;2023-04-27T04:24:58;95186.34;;;6.24;59.65
61961;BME280;47923;42.506;24.192;2023-04-27T04:27:23;95072.59;;;5.64;59.30
61961;BME280;47923;42.506;24.192;2023-04-27T04:29:49;95194.03;;;6.50;59.20
61961;BME280;47923;42.506;24.192;2023-04-27T04:32:14;95187.63;;;6.67;59.13
61961;BME280;47923;42.506;24.192;2023-04-27T04:34:43;95086.53;;;6.19;57.64
61961;BME280;47923;42.506;24.192;2023-04-27T04:37:08;95200.72;;;7.53;55.75
61961;BME280;47923;42.506;24.192;2023-04-27T04:39:34;95196.00;;;7.93;54.28
61961;BME280;47923;42.506;24.192;2023-04-27T04:41:59;95082.03;;;7.35;53.92
61961;BME280;47923;42.506;24.192;2023-04-27T04:44:25;95197.69;;;8.65;52.33
61961;BME280;47923;42.506;24.192;2023-04-27T04:46:50;95148.88;;;9.47;49.55
61961;BME280;47923;42.506;24.192;2023-04-27T04:49:17;95147.13;;;11.14;44.89
61961;BME280;47923;42.506;24.192;2023-04-27T04:51:43;95202.22;;;11.32;44.14
61961;BME280;47923;42.506;24.192;2023-04-27T04:54:09;95204.66;;;10.81;45.14
61961;BME280;47923;42.506;24.192;2023-04-27T04:56:36;95212.31;;;10.78;44.83
61961;BME280;47923;42.506;24.192;2023-04-27T04:59:01;95208.38;;;10.99;44.78
61961;BME280;47923;42.506;24.192;2023-04-27T05:01:27;95214.78;;;10.87;44.34
61961;BME280;47923;42.506;24.192;2023-04-27T05:03:52;95200.97;;;10.66;44.78
61961;BME280;47923;42.506;24.192;2023-04-27T05:06:18;95161.94;;;10.63;44.46
61961;BME280;47923;42.506;24.192;2023-04-27T05:08:43;95194.38;;;11.23;43.99
61961;BME280;47923;42.506;24.192;2023-04-27T05:11:09;95216.50;;;11.66;42.07
61961;BME280;47923;42.506;24.192;2023-04-27T05:13:35;95217.28;;;12.00;41.80
61961;BME280;47923;42.506;24.192;2023-04-27T05:16:06;95242.66;;;11.55;42.82
61961;BME280;47923;42.506;24.192;2023-04-27T05:18:34;95233.63;;;11.10;43.93
61961;BME280;47923;42.506;24.192;2023-04-27T05:21:00;95085.97;;;9.85;44.61
61961;BME280;47923;42.506;24.192;2023-04-27T05:23:26;95120.69;;;10.36;44.83
61961;BME280;47923;42.506;24.192;2023-04-27T05:25:52;95059.28;;;10.33;43.66
61961;BME280;47923;42.506;24.192;2023-04-27T05:28:18;95163.75;;;12.31;40.82
61961;BME280;47923;42.506;24.192;2023-04-27T05:30:43;95231.63;;;14.30;38.28
61961;BME280;47923;42.506;24.192;2023-04-27T05:33:09;95221.94;;;15.98;34.17
61961;BME280;47923;42.506;24.192;2023-04-27T05:35:34;95214.19;;;14.84;35.59
61961;BME280;47923;42.506;24.192;2023-04-27T05:38:00;95148.16;;;13.66;36.59
61961;BME280;47923;42.506;24.192;2023-04-27T05:40:26;95231.19;;;13.81;37.12
61961;BME280;47923;42.506;24.192;2023-04-27T05:42:52;95233.75;;;13.42;37.56
61961;BME280;47923;42.506;24.192;2023-04-27T05:45:18;95177.94;;;12.17;38.90
61961;BME280;47923;42.506;24.192;2023-04-27T05:47:43;95246.75;;;12.09;40.44
61961;BME280;47923;42.506;24.192;2023-04-27T05:50:09;94619.06;;;7.80;41.19
61961;BME280;47923;42.506;24.192;2023-04-27T05:52:35;94899.13;;;8.86;41.81
61961;BME280;47923;42.506;24.192;2023-04-27T05:55:01;94930.06;;;9.19;42.37
61961;BME280;47923;42.506;24.192;2023-04-27T05:57:27;95141.66;;;10.76;42.07
61961;BME280;47923;42.506;24.192;2023-04-27T05:59:52;95258.06;;;11.51;41.85
61961;BME280;47923;42.506;24.192;2023-04-27T06:02:18;95267.97;;;11.70;41.25
61961;BME280;47923;42.506;24.192;2023-04-27T06:04:44;95170.22;;;11.04;41.86
61961;BME280;47923;42.506;24.192;2023-04-27T06:07:11;94745.84;;;8.28;41.89
61961;BME280;47923;42.506;24.192;2023-04-27T06:09:40;94957.09;;;9.49;41.60
61961;BME280;47923;42.506;24.192;2023-04-27T06:12:07;95253.59;;;11.02;42.40
61961;BME280;47923;42.506;24.192;2023-04-27T06:14:34;95260.47;;;10.96;42.80
61961;BME280;47923;42.506;24.192;2023-04-27T06:17:01;95143.13;;;10.17;43.14
61961;BME280;47923;42.506;24.192;2023-04-27T06:19:26;94910.88;;;8.97;42.41
61961;BME280;47923;42.506;24.192;2023-04-27T06:21:53;94837.94;;;8.86;41.82
61961;BME280;47923;42.506;24.192;2023-04-27T06:24:19;94806.63;;;8.75;41.08
61961;BME280;47923;42.506;24.192;2023-04-27T06:26:45;95263.91;;;11.86;40.35
61961;BME280;47923;42.506;24.192;2023-04-27T06:29:10;95136.38;;;11.17;39.95
61961;BME280;47923;42.506;24.192;2023-04-27T06:31:36;95162.75;;;11.61;39.56
61961;BME280;47923;42.506;24.192;2023-04-27T06:34:02;95103.56;;;10.55;40.34
61961;BME280;47923;42.506;24.192;2023-04-27T06:36:28;95241.94;;;11.92;40.02
61961;BME280;47923;42.506;24.192;2023-04-27T06:38:54;95279.38;;;12.23;39.89
61961;BME280;47923;42.506;24.192;2023-04-27T06:41:21;95263.44;;;12.59;39.16
61961;BME280;47923;42.506;24.192;2023-04-27T06:43:47;95256.53;;;14.60;36.14
61961;BME280;47923;42.506;24.192;2023-04-27T06:46:12;95247.41;;;18.79;28.96
61961;BME280;47923;42.506;24.192;2023-04-27T06:48:38;95107.81;;;17.28;28.90
61961;BME280;47923;42.506;24.192;2023-04-27T06:51:03;95169.56;;;18.80;27.47
61961;BME280;47923;42.506;24.192;2023-04-27T06:53:29;95263.66;;;20.68;25.65
61961;BME280;47923;42.506;24.192;2023-04-27T06:55:55;95265.13;;;20.37;25.34
61961;BME280;47923;42.506;24.192;2023-04-27T06:58:21;94803.25;;;16.22;26.82
61961;BME280;47923;42.506;24.192;2023-04-27T07:00:47;94846.31;;;15.70;28.16
61961;BME280;47923;42.506;24.192;2023-04-27T07:03:12;95047.50;;;16.09;29.41
61961;BME280;47923;42.506;24.192;2023-04-27T07:05:38;94966.72;;;18.38;25.98
61961;BME280;47923;42.506;24.192;2023-04-27T07:08:04;94881.19;;;20.04;23.73
61961;BME280;47923;42.506;24.192;2023-04-27T07:10:30;95176.41;;;23.73;21.72
61961;BME280;47923;42.506;24.192;2023-04-27T07:12:55;94709.84;;;18.64;22.42
61961;BME280;47923;42.506;24.192;2023-04-27T07:15:21;95143.69;;;21.56;23.10
61961;BME280;47923;42.506;24.192;2023-04-27T07:17:47;95117.59;;;20.28;23.92
61961;BME280;47923;42.506;24.192;2023-04-27T07:20:13;95260.97;;;22.43;22.61
61961;BME280;47923;42.506;24.192;2023-04-27T07:22:38;95252.22;;;24.83;19.81
61961;BME280;47923;42.506;24.192;2023-04-27T07:25:05;95198.59;;;23.56;20.48
61961;BME280;47923;42.506;24.192;2023-04-27T07:27:31;95195.66;;;22.69;21.66
61961;BME280;47923;42.506;24.192;2023-04-27T07:29:57;95255.94;;;21.99;23.11
61961;BME280;47923;42.506;24.192;2023-04-27T07:32:22;94957.69;;;18.81;24.46
61961;BME280;47923;42.506;24.192;2023-04-27T07:34:49;94916.81;;;17.71;25.35
61961;BME280;47923;42.506;24.192;2023-04-27T07:37:15;95088.31;;;17.83;25.73
61961;BME280;47923;42.506;24.192;2023-04-27T07:39:41;95183.47;;;19.92;24.48
61961;BME280;47923;42.506;24.192;2023-04-27T07:42:07;95221.47;;;22.49;23.14
61961;BME280;47923;42.506;24.192;2023-04-27T07:44:33;95286.91;;;23.43;22.15
61961;BME280;47923;42.506;24.192;2023-04-27T07:46:58;95134.53;;;25.13;18.80
61961;BME280;47923;42.506;24.192;2023-04-27T07:49:24;95256.66;;;26.64;17.09
61961;BME280;47923;42.506;24.192;2023-04-27T07:51:50;95015.72;;;27.08;16.43
61961;BME280;47923;42.506;24.192;2023-04-27T07:54:16;95237.94;;;28.82;15.64
61961;BME280;47923;42.506;24.192;2023-04-27T07:56:42;94898.59;;;26.15;17.21
61961;BME280;47923;42.506;24.192;2023-04-27T07:59:07;95080.78;;;27.96;16.13
61961;BME280;47923;42.506;24.192;2023-04-27T08:01:33;95144.72;;;28.01;15.42
61961;BME280;47923;42.506;24.192;2023-04-27T08:03:58;94929.31;;;25.37;16.07
61961;BME280;47923;42.506;24.192;2023-04-27T08:06:24;95226.78;;;24.97;17.47
61961;BME280;47923;42.506;24.192;2023-04-27T08:08:49;95218.41;;;27.10;17.99
61961;BME280;47923;42.506;24.192;2023-04-27T08:11:15;95269.94;;;28.18;15.35
61961;BME280;47923;42.506;24.192;2023-04-27T08:13:41;95129.72;;;27.78;16.83
61961;BME280;47923;42.506;24.192;2023-04-27T08:16:06;95260.06;;;30.34;13.90
61961;BME280;47923;42.506;24.192;2023-04-27T08:18:34;95121.81;;;29.32;14.42
61961;BME280;47923;42.506;24.192;2023-04-27T08:21:16;94858.72;;;28.37;13.83
61961;BME280;47923;42.506;24.192;2023-04-27T08:23:54;95160.63;;;29.93;13.89
61961;BME280;47923;42.506;24.192;2023-04-27T08:26:27;95098.03;;;28.50;15.17
61961;BME280;47923;42.506;24.192;2023-04-27T08:28:59;95237.84;;;27.88;15.62
61961;BME280;47923;42.506;24.192;2023-04-27T08:31:43;94978.00;;;27.11;14.85
61961;BME280;47923;42.506;24.192;2023-04-27T08:34:19;94990.09;;;28.89;14.49
61961;BME280;47923;42.506;24.192;2023-04-27T08:36:47;94969.38;;;29.42;13.59
61961;BME280;47923;42.506;24.192;2023-04-27T08:39:12;95254.84;;;31.16;13.74
61961;BME280;47923;42.506;24.192;2023-04-27T08:41:41;95252.53;;;30.71;14.73
61961;BME280;47923;42.506;24.192;2023-04-27T08:44:10;94900.75;;;27.53;15.21
61961;BME280;47923;42.506;24.192;2023-04-27T08:46:38;95247.63;;;28.72;15.20
61961;BME280;47923;42.506;24.192;2023-04-27T08:49:04;95132.88;;;26.37;16.24
61961;BME280;47923;42.506;24.192;2023-04-27T08:51:32;95242.91;;;26.27;17.07
61961;BME280;47923;42.506;24.192;2023-04-27T08:53:58;95250.19;;;25.51;18.02
61961;BME280;47923;42.506;24.192;2023-04-27T08:56:25;95115.47;;;25.43;18.50
61961;BME280;47923;42.506;24.192;2023-04-27T08:58:52;95263.56;;;26.08;18.04
61961;BME280;47923;42.506;24.192;2023-04-27T09:01:18;95257.25;;;25.52;18.55
61961;BME280;47923;42.506;24.192;2023-04-27T09:03:44;95161.69;;;25.60;17.82
61961;BME280;47923;42.506;24.192;2023-04-27T09:06:13;95149.66;;;24.72;17.33
61961;BME280;47923;42.506;24.192;2023-04-27T09:08:45;95253.44;;;25.50;18.73
61961;BME280;47923;42.506;24.192;2023-04-27T09:11:15;94767.13;;;20.74;18.32
61961;BME280;47923;42.506;24.192;2023-04-27T09:13:42;95142.56;;;22.08;19.68
61961;BME280;47923;42.506;24.192;2023-04-27T09:16:12;95176.56;;;21.60;20.71
61961;BME280;47923;42.506;24.192;2023-04-27T09:18:42;94988.72;;;20.99;20.02
61961;BME280;47923;42.506;24.192;2023-04-27T09:21:08;95256.50;;;23.56;19.32
61961;BME280;47923;42.506;24.192;2023-04-27T09:23:37;95176.50;;;22.78;19.08
61961;BME280;47923;42.506;24.192;2023-04-27T09:26:04;95249.66;;;23.26;19.46
61961;BME280;47923;42.506;24.192;2023-04-27T09:28:36;94926.13;;;21.19;19.47
61961;BME280;47923;42.506;24.192;2023-04-27T09:31:02;95220.59;;;23.12;20.43
61961;BME280;47923;42.506;24.192;2023-04-27T09:33:30;94993.56;;;21.08;20.65
61961;BME280;47923;42.506;24.192;2023-04-27T09:35:58;94785.22;;;19.63;19.24
61961;BME280;47923;42.506;24.192;2023-04-27T09:38:24;95280.56;;;22.32;19.41
61961;BME280;47923;42.506;24.192;2023-04-27T09:40:51;95264.44;;;21.02;20.94
61961;BME280;47923;42.506;24.192;2023-04-27T09:43:17;95159.59;;;19.73;21.71
61961;BME280;47923;42.506;24.192;2023-04-27T09:45:42;95176.63;;;19.64;21.28
61961;BME280;47923;42.506;24.192;2023-04-27T09:48:09;95262.28;;;19.45;22.01
61961;BME280;47923;42.506;24.192;2023-04-27T09:50:40;95183.78;;;20.30;21.88
61961;BME280;47923;42.506;24.192;2023-04-27T09:53:09;95050.88;;;20.64;21.26
61961;BME280;47923;42.506;24.192;2023-04-27T09:56:07;95255.59;;;22.77;19.59
61961;BME280;47923;42.506;24.192;2023-04-27T09:59:09;95098.63;;;21.79;20.76
61961;BME280;47923;42.506;24.192;2023-04-27T10:01:58;95218.38;;;22.34;19.82
61961;BME280;47923;42.506;24.192;2023-04-27T10:07:13;95282.34;;;22.51;20.38
61961;BME280;47923;42.506;24.192;2023-04-27T10:09:45;95117.84;;;22.55;18.83
61961;BME280;47923;42.506;24.192;2023-04-27T10:12:27;95254.47;;;25.16;17.40
61961;BME280;47923;42.506;24.192;2023-04-27T10:15:11;95016.59;;;23.47;17.13
61961;BME280;47923;42.506;24.192;2023-04-27T10:17:37;94948.78;;;24.08;16.77
61961;BME280;47923;42.506;24.192;2023-04-27T10:20:04;94953.13;;;24.37;16.84
61961;BME280;47923;42.506;24.192;2023-04-27T10:22:48;95214.53;;;25.53;16.85
61961;BME280;47923;42.506;24.192;2023-04-27T10:25:19;95254.75;;;23.62;18.33
61961;BME280;47923;42.506;24.192;2023-04-27T10:27:56;95192.16;;;22.04;20.14
61961;BME280;47923;42.506;24.192;2023-04-27T10:30:24;95250.63;;;23.32;19.47
61961;BME280;47923;42.506;24.192;2023-04-27T10:32:55;94918.16;;;20.00;19.55
61961;BME280;47923;42.506;24.192;2023-04-27T10:35:30;95196.66;;;21.57;20.51
61961;BME280;47923;42.506;24.192;2023-04-27T10:38:14;95260.00;;;21.37;20.07
61961;BME280;47923;42.506;24.192;2023-04-27T10:40:43;95189.06;;;19.69;22.67
61961;BME280;47923;42.506;24.192;2023-04-27T10:43:13;95264.41;;;19.97;22.23
61961;BME280;47923;42.506;24.192;2023-04-27T10:45:41;95175.91;;;18.77;22.84
61961;BME280;47923;42.506;24.192;2023-04-27T10:48:07;95263.09;;;19.22;23.66
61961;BME280;47923;42.506;24.192;2023-04-27T10:50:33;95272.28;;;19.12;23.25
61961;BME280;47923;42.506;24.192;2023-04-27T10:53:04;94993.22;;;17.75;23.26
61961;BME280;47923;42.506;24.192;2023-04-27T10:55:30;95001.06;;;17.73;22.84
61961;BME280;47923;42.506;24.192;2023-04-27T10:57:56;95005.50;;;18.33;22.71
61961;BME280;47923;42.506;24.192;2023-04-27T11:00:26;95283.72;;;20.49;22.00
61961;BME280;47923;42.506;24.192;2023-04-27T11:02:53;95197.00;;;19.63;22.34
61961;BME280;47923;42.506;24.192;2023-04-27T11:05:21;95277.88;;;20.63;22.14
61961;BME280;47923;42.506;24.192;2023-04-27T11:07:50;95032.88;;;18.53;22.51
61961;BME280;47923;42.506;24.192;2023-04-27T11:10:17;95042.59;;;18.34;23.10
61961;BME280;47923;42.506;24.192;2023-04-27T11:12:43;95289.75;;;19.84;23.38
61961;BME280;47923;42.506;24.192;2023-04-27T11:15:09;95274.84;;;18.99;23.94
61961;BME280;47923;42.506;24.192;2023-04-27T11:17:35;95223.63;;;18.49;23.43
61961;BME280;47923;42.506;24.192;2023-04-27T11:20:00;95193.19;;;18.20;22.56
61961;BME280;47923;42.506;24.192;2023-04-27T11:22:26;95009.38;;;16.09;24.15
61961;BME280;47923;42.506;24.192;2023-04-27T11:24:52;95017.22;;;16.00;25.42
61961;BME280;47923;42.506;24.192;2023-04-27T11:27:18;95123.53;;;17.17;24.09
61961;BME280;47923;42.506;24.192;2023-04-27T11:29:46;95189.13;;;17.78;23.71
61961;BME280;47923;42.506;24.192;2023-04-27T11:32:21;94853.81;;;15.96;24.14
61961;BME280;47923;42.506;24.192;2023-04-27T11:34:51;94824.41;;;15.81;23.71
61961;BME280;47923;42.506;24.192;2023-04-27T11:37:21;95281.38;;;18.82;23.71
61961;BME280;47923;42.506;24.192;2023-04-27T11:39:48;95279.25;;;18.39;24.51
61961;BME280;47923;42.506;24.192;2023-04-27T11:42:14;95278.69;;;18.24;24.53
61961;BME280;47923;42.506;24.192;2023-04-27T11:44:42;95213.66;;;17.81;24.13
61961;BME280;47923;42.506;24.192;2023-04-27T11:47:07;95257.38;;;18.39;23.65
61961;BME280;47923;42.506;24.192;2023-04-27T11:49:33;95243.03;;;18.04;23.59
61961;BME280;47923;42.506;24.192;2023-04-27T11:51:59;95203.69;;;18.25;23.10
61961;BME280;47923;42.506;24.192;2023-04-27T11:54:28;95056.44;;;17.19;23.35
61961;BME280;47923;42.506;24.192;2023-04-27T11:57:04;95111.13;;;16.74;23.85
61961;BME280;47923;42.506;24.192;2023-04-27T11:59:30;94903.53;;;15.18;24.24
61961;BME280;47923;42.506;24.192;2023-04-27T12:01:55;95180.28;;;16.98;24.99
61961;BME280;47923;42.506;24.192;2023-04-27T12:04:21;94967.72;;;15.64;22.88
61961;BME280;47923;42.506;24.192;2023-04-27T12:06:46;94927.06;;;15.42;23.37
61961;BME280;47923;42.506;24.192;2023-04-27T12:09:12;95284.56;;;17.92;24.27
61961;BME280;47923;42.506;24.192;2023-04-27T12:11:37;95253.72;;;17.91;24.66
61961;BME280;47923;42.506;24.192;2023-04-27T12:14:03;95000.84;;;16.41;25.50
61961;BME280;47923;42.506;24.192;2023-04-27T12:16:28;94910.53;;;16.05;24.44
61961;BME280;47923;42.506;24.192;2023-04-27T12:18:54;95267.25;;;18.02;24.35
61961;BME280;47923;42.506;24.192;2023-04-27T12:21:19;94698.41;;;14.19;24.36
61961;BME280;47923;42.506;24.192;2023-04-27T12:23:45;94946.97;;;16.18;23.93
61961;BME280;47923;42.506;24.192;2023-04-27T12:26:11;95284.19;;;18.20;24.18
61961;BME280;47923;42.506;24.192;2023-04-27T12:28:36;95174.47;;;17.30;24.06
61961;BME280;47923;42.506;24.192;2023-04-27T12:31:05;94878.63;;;15.68;24.77
61961;BME280;47923;42.506;24.192;2023-04-27T12:33:32;95073.47;;;16.96;23.59
61961;BME280;47923;42.506;24.192;2023-04-27T12:35:58;94717.75;;;14.80;22.76
61961;BME280;47923;42.506;24.192;2023-04-27T12:38:23;95264.34;;;18.43;23.45
61961;BME280;47923;42.506;24.192;2023-04-27T12:40:48;95042.56;;;16.76;22.90
61961;BME280;47923;42.506;24.192;2023-04-27T12:43:14;95270.16;;;18.18;23.61
61961;BME280;47923;42.506;24.192;2023-04-27T12:45:40;95281.44;;;17.93;22.45
61961;BME280;47923;42.506;24.192;2023-04-27T12:48:06;95278.09;;;17.79;22.88
61961;BME280;47923;42.506;24.192;2023-04-27T12:50:32;94962.13;;;15.82;23.81
61961;BME280;47923;42.506;24.192;2023-04-27T12:52:58;94938.19;;;15.62;24.34
61961;BME280;47923;42.506;24.192;2023-04-27T12:55:24;95013.03;;;16.29;24.73
61961;BME280;47923;42.506;24.192;2023-04-27T12:57:50;95264.53;;;18.02;25.08